Marengo, Ohio
Current Conditions -  °F | °C
As of 9:55 AM on Tuesday 21 Oct 2014 (Local Time) from K4I3 Reporting Station
Drizzle Drizzle  
Wind Chill: 44°   Ceiling: 1100
Heat Index: 48°   Visibility: 7mi
Dew Point: 46°   Wind: 9mph
Humidity: 93%   Direction: 330°NNW
Pressure: 29.93"   Gusts: NA
Location:  40.4°N, 82.81°W
Report Text: K4I3 211355Z AUTO 33008KT 7SM -DZ OVC011 09/08 A2993 RMK AO2
Loading
Personal Weather Stations






























Interactive Weather Map
Tropical Storm Tracking
New forecast layout! Learn more

10-Day Weather Forecast

Advertisements
Track Severe Weather on mobile